Terminal Aerodrome Forecast
Issued by NWS

Home | Current Version | Previous Version | Text Only | Print | Product List | Glossary On
Versions: 1 2 3 4 5 6 7 8 9 10 11 12 13
000
FTUS43 KDDC 261743 RRA
TAFGCK
TAF
KGCK 261743Z 2618/2718 03013KT P6SM SKC
     FM270100 12010KT P6SM VCTS SCT200CB
     FM270700 14010G18KT P6SM VCTS SCT250CB WS020/16040KT
     FM271300 05008KT P6SM OVC008 WS020/20025KT
     FM271500 36010KT P6SM OVC040=

USA.gov is the U.S. government's official web portal to all federal, state and local government web resources and services.